Alton, United Kingdom
Current Conditions -  °F | °C
As of 11:50 AM on Tuesday 27 Jan 2015 (Local Time) from EGVO Reporting Station
Broken Clouds Broken Clouds  
Wind Chill: 40°   Ceiling: 9500
Heat Index: 45°   Visibility: 6mi
Dew Point: 37°   Wind: 8mph
Humidity: 76%   Direction: 270°W
Pressure: 30.33"   Gusts: NA
Location:  51.15°N, 0.97°W
Report Text: EGVO 271150Z 27007KT 9999 FEW016 SCT070 BKN095 07/03 Q1027 BLU TEMPO SCT020 WHT
Loading
Personal Weather Stations






























Interactive Weather Map New forecast layout! Learn more

10-Day Weather Forecast

Advertisements
Track Severe Weather on mobile